sensor_id;sensor_type;location;lat;lon;timestamp;P1;durP1;ratioP1;P2;durP2;ratioP2
26277;SDS011;14000;52.056;8.510;2023-05-14T00:00:47;15.40;;;8.50;;
26277;SDS011;14000;52.056;8.510;2023-05-14T00:03:13;17.23;;;9.10;;
26277;SDS011;14000;52.056;8.510;2023-05-14T00:05:38;15.73;;;9.13;;
26277;SDS011;14000;52.056;8.510;2023-05-14T00:08:04;16.93;;;8.57;;
26277;SDS011;14000;52.056;8.510;2023-05-14T00:10:30;16.03;;;9.03;;
26277;SDS011;14000;52.056;8.510;2023-05-14T00:12:55;15.27;;;9.17;;
26277;SDS011;14000;52.056;8.510;2023-05-14T00:15:21;16.37;;;9.50;;
26277;SDS011;14000;52.056;8.510;2023-05-14T00:17:46;14.10;;;9.10;;
26277;SDS011;14000;52.056;8.510;2023-05-14T00:20:12;16.03;;;9.23;;
26277;SDS011;14000;52.056;8.510;2023-05-14T00:22:38;15.60;;;9.60;;
26277;SDS011;14000;52.056;8.510;2023-05-14T00:25:04;13.53;;;7.90;;
26277;SDS011;14000;52.056;8.510;2023-05-14T00:27:31;16.40;;;8.50;;
26277;SDS011;14000;52.056;8.510;2023-05-14T00:29:56;16.80;;;8.93;;
26277;SDS011;14000;52.056;8.510;2023-05-14T00:32:22;16.37;;;9.80;;
26277;SDS011;14000;52.056;8.510;2023-05-14T00:34:48;17.23;;;9.70;;
26277;SDS011;14000;52.056;8.510;2023-05-14T00:37:13;15.77;;;9.43;;
26277;SDS011;14000;52.056;8.510;2023-05-14T00:39:39;18.00;;;10.50;;
26277;SDS011;14000;52.056;8.510;2023-05-14T00:42:05;18.63;;;9.73;;
26277;SDS011;14000;52.056;8.510;2023-05-14T00:44:30;14.93;;;9.10;;
26277;SDS011;14000;52.056;8.510;2023-05-14T00:46:56;18.50;;;8.90;;
26277;SDS011;14000;52.056;8.510;2023-05-14T00:49:23;15.30;;;9.03;;
26277;SDS011;14000;52.056;8.510;2023-05-14T00:51:49;17.40;;;10.40;;
26277;SDS011;14000;52.056;8.510;2023-05-14T00:54:15;18.37;;;10.70;;
26277;SDS011;14000;52.056;8.510;2023-05-14T00:56:44;15.23;;;9.47;;
26277;SDS011;14000;52.056;8.510;2023-05-14T00:59:11;20.60;;;10.00;;
26277;SDS011;14000;52.056;8.510;2023-05-14T01:01:37;15.97;;;9.53;;
26277;SDS011;14000;52.056;8.510;2023-05-14T01:04:03;14.37;;;8.90;;
26277;SDS011;14000;52.056;8.510;2023-05-14T01:09:24;18.30;;;10.13;;
26277;SDS011;14000;52.056;8.510;2023-05-14T01:14:19;15.00;;;9.67;;
26277;SDS011;14000;52.056;8.510;2023-05-14T01:16:49;17.67;;;10.53;;
26277;SDS011;14000;52.056;8.510;2023-05-14T01:19:28;19.93;;;11.00;;
26277;SDS011;14000;52.056;8.510;2023-05-14T01:22:04;15.20;;;9.63;;
26277;SDS011;14000;52.056;8.510;2023-05-14T01:24:30;17.10;;;10.27;;
26277;SDS011;14000;52.056;8.510;2023-05-14T01:26:57;15.33;;;10.90;;
26277;SDS011;14000;52.056;8.510;2023-05-14T01:29:40;15.97;;;10.57;;
26277;SDS011;14000;52.056;8.510;2023-05-14T01:32:09;16.17;;;10.10;;
26277;SDS011;14000;52.056;8.510;2023-05-14T01:34:37;20.03;;;11.20;;
26277;SDS011;14000;52.056;8.510;2023-05-14T01:37:04;17.90;;;10.47;;
26277;SDS011;14000;52.056;8.510;2023-05-14T01:39:31;15.40;;;9.47;;
26277;SDS011;14000;52.056;8.510;2023-05-14T01:42:01;17.80;;;10.80;;
26277;SDS011;14000;52.056;8.510;2023-05-14T01:44:27;18.37;;;9.80;;
26277;SDS011;14000;52.056;8.510;2023-05-14T01:46:53;17.90;;;9.60;;
26277;SDS011;14000;52.056;8.510;2023-05-14T01:49:19;15.67;;;9.27;;
26277;SDS011;14000;52.056;8.510;2023-05-14T01:51:45;17.57;;;10.37;;
26277;SDS011;14000;52.056;8.510;2023-05-14T01:54:10;14.63;;;9.87;;
26277;SDS011;14000;52.056;8.510;2023-05-14T01:56:36;14.30;;;9.43;;
26277;SDS011;14000;52.056;8.510;2023-05-14T01:59:01;18.57;;;10.07;;
26277;SDS011;14000;52.056;8.510;2023-05-14T02:01:27;15.53;;;10.17;;
26277;SDS011;14000;52.056;8.510;2023-05-14T02:03:52;13.97;;;9.17;;
26277;SDS011;14000;52.056;8.510;2023-05-14T02:06:18;19.57;;;10.60;;
26277;SDS011;14000;52.056;8.510;2023-05-14T02:08:44;15.43;;;9.77;;
26277;SDS011;14000;52.056;8.510;2023-05-14T02:11:10;19.83;;;10.60;;
26277;SDS011;14000;52.056;8.510;2023-05-14T02:13:35;20.27;;;10.40;;
26277;SDS011;14000;52.056;8.510;2023-05-14T02:16:01;16.83;;;11.13;;
26277;SDS011;14000;52.056;8.510;2023-05-14T02:18:26;18.13;;;10.73;;
26277;SDS011;14000;52.056;8.510;2023-05-14T02:20:52;18.87;;;10.63;;
26277;SDS011;14000;52.056;8.510;2023-05-14T02:23:18;19.07;;;11.33;;
26277;SDS011;14000;52.056;8.510;2023-05-14T02:25:43;17.73;;;10.30;;
26277;SDS011;14000;52.056;8.510;2023-05-14T02:28:09;16.87;;;9.70;;
26277;SDS011;14000;52.056;8.510;2023-05-14T02:30:36;15.97;;;9.40;;
26277;SDS011;14000;52.056;8.510;2023-05-14T02:33:01;16.70;;;10.33;;
26277;SDS011;14000;52.056;8.510;2023-05-14T02:35:27;19.47;;;10.90;;
26277;SDS011;14000;52.056;8.510;2023-05-14T02:37:54;17.17;;;10.90;;
26277;SDS011;14000;52.056;8.510;2023-05-14T02:40:20;17.47;;;10.80;;
26277;SDS011;14000;52.056;8.510;2023-05-14T02:42:47;17.20;;;10.40;;
26277;SDS011;14000;52.056;8.510;2023-05-14T02:45:13;18.30;;;11.17;;
26277;SDS011;14000;52.056;8.510;2023-05-14T02:47:40;15.97;;;10.80;;
26277;SDS011;14000;52.056;8.510;2023-05-14T02:50:07;17.70;;;11.60;;
26277;SDS011;14000;52.056;8.510;2023-05-14T02:52:35;18.83;;;10.50;;
26277;SDS011;14000;52.056;8.510;2023-05-14T02:55:01;17.93;;;11.40;;
26277;SDS011;14000;52.056;8.510;2023-05-14T02:57:28;16.50;;;10.10;;
26277;SDS011;14000;52.056;8.510;2023-05-14T02:59:54;20.13;;;11.60;;
26277;SDS011;14000;52.056;8.510;2023-05-14T03:02:21;15.00;;;9.77;;
26277;SDS011;14000;52.056;8.510;2023-05-14T03:04:48;19.27;;;11.17;;
26277;SDS011;14000;52.056;8.510;2023-05-14T03:07:14;16.70;;;11.17;;
26277;SDS011;14000;52.056;8.510;2023-05-14T03:09:41;18.27;;;11.83;;
26277;SDS011;14000;52.056;8.510;2023-05-14T03:12:06;15.77;;;10.73;;
26277;SDS011;14000;52.056;8.510;2023-05-14T03:14:32;17.17;;;11.20;;
26277;SDS011;14000;52.056;8.510;2023-05-14T03:16:58;18.83;;;11.63;;
26277;SDS011;14000;52.056;8.510;2023-05-14T03:19:23;16.77;;;10.87;;
26277;SDS011;14000;52.056;8.510;2023-05-14T03:21:49;18.33;;;11.50;;
26277;SDS011;14000;52.056;8.510;2023-05-14T03:24:14;16.77;;;11.30;;
26277;SDS011;14000;52.056;8.510;2023-05-14T03:26:40;17.07;;;11.23;;
26277;SDS011;14000;52.056;8.510;2023-05-14T03:29:05;16.87;;;11.70;;
26277;SDS011;14000;52.056;8.510;2023-05-14T03:31:31;18.07;;;10.83;;
26277;SDS011;14000;52.056;8.510;2023-05-14T03:33:56;19.20;;;12.83;;
26277;SDS011;14000;52.056;8.510;2023-05-14T03:36:22;18.80;;;11.43;;
26277;SDS011;14000;52.056;8.510;2023-05-14T03:38:48;15.80;;;10.50;;
26277;SDS011;14000;52.056;8.510;2023-05-14T03:41:13;20.67;;;11.40;;
26277;SDS011;14000;52.056;8.510;2023-05-14T03:43:39;20.97;;;12.10;;
26277;SDS011;14000;52.056;8.510;2023-05-14T03:46:04;19.83;;;12.87;;
26277;SDS011;14000;52.056;8.510;2023-05-14T03:48:30;19.00;;;12.77;;
26277;SDS011;14000;52.056;8.510;2023-05-14T03:50:56;18.37;;;12.00;;
26277;SDS011;14000;52.056;8.510;2023-05-14T03:53:21;17.03;;;11.77;;
26277;SDS011;14000;52.056;8.510;2023-05-14T03:55:47;18.23;;;11.60;;
26277;SDS011;14000;52.056;8.510;2023-05-14T03:58:12;19.30;;;12.60;;
26277;SDS011;14000;52.056;8.510;2023-05-14T04:00:41;18.30;;;10.80;;
26277;SDS011;14000;52.056;8.510;2023-05-14T04:03:07;16.63;;;10.93;;
26277;SDS011;14000;52.056;8.510;2023-05-14T04:05:33;20.10;;;12.00;;
26277;SDS011;14000;52.056;8.510;2023-05-14T04:07:59;18.10;;;11.60;;
26277;SDS011;14000;52.056;8.510;2023-05-14T04:10:25;18.50;;;11.97;;
26277;SDS011;14000;52.056;8.510;2023-05-14T04:12:51;16.17;;;11.20;;
26277;SDS011;14000;52.056;8.510;2023-05-14T04:15:17;17.40;;;11.07;;
26277;SDS011;14000;52.056;8.510;2023-05-14T04:17:42;19.10;;;12.23;;
26277;SDS011;14000;52.056;8.510;2023-05-14T04:20:08;18.90;;;12.47;;
26277;SDS011;14000;52.056;8.510;2023-05-14T04:22:34;18.53;;;11.40;;
26277;SDS011;14000;52.056;8.510;2023-05-14T04:24:59;17.17;;;11.43;;
26277;SDS011;14000;52.056;8.510;2023-05-14T04:27:25;17.03;;;12.10;;
26277;SDS011;14000;52.056;8.510;2023-05-14T04:29:52;19.50;;;12.50;;
26277;SDS011;14000;52.056;8.510;2023-05-14T04:32:17;19.53;;;13.57;;
26277;SDS011;14000;52.056;8.510;2023-05-14T04:34:43;19.87;;;12.43;;
26277;SDS011;14000;52.056;8.510;2023-05-14T04:37:08;19.13;;;11.33;;
26277;SDS011;14000;52.056;8.510;2023-05-14T04:39:34;18.73;;;11.77;;
26277;SDS011;14000;52.056;8.510;2023-05-14T04:41:59;20.63;;;11.80;;
26277;SDS011;14000;52.056;8.510;2023-05-14T04:44:25;16.87;;;11.10;;
26277;SDS011;14000;52.056;8.510;2023-05-14T04:46:51;18.90;;;11.70;;
26277;SDS011;14000;52.056;8.510;2023-05-14T04:49:16;17.37;;;10.97;;
26277;SDS011;14000;52.056;8.510;2023-05-14T04:51:42;17.67;;;12.40;;
26277;SDS011;14000;52.056;8.510;2023-05-14T04:54:07;21.23;;;13.30;;
26277;SDS011;14000;52.056;8.510;2023-05-14T04:56:33;18.10;;;11.30;;
26277;SDS011;14000;52.056;8.510;2023-05-14T04:58:58;16.07;;;11.10;;
26277;SDS011;14000;52.056;8.510;2023-05-14T05:01:24;20.63;;;13.07;;
26277;SDS011;14000;52.056;8.510;2023-05-14T05:03:50;20.43;;;11.47;;
26277;SDS011;14000;52.056;8.510;2023-05-14T05:06:15;19.57;;;11.90;;
26277;SDS011;14000;52.056;8.510;2023-05-14T05:08:41;18.03;;;11.93;;
26277;SDS011;14000;52.056;8.510;2023-05-14T05:11:06;18.27;;;11.73;;
26277;SDS011;14000;52.056;8.510;2023-05-14T05:13:32;21.97;;;12.63;;
26277;SDS011;14000;52.056;8.510;2023-05-14T05:15:57;18.23;;;12.07;;
26277;SDS011;14000;52.056;8.510;2023-05-14T05:18:23;19.57;;;11.87;;
26277;SDS011;14000;52.056;8.510;2023-05-14T05:20:48;18.07;;;12.20;;
26277;SDS011;14000;52.056;8.510;2023-05-14T05:23:14;18.67;;;12.37;;
26277;SDS011;14000;52.056;8.510;2023-05-14T05:25:40;21.30;;;13.97;;
26277;SDS011;14000;52.056;8.510;2023-05-14T05:28:05;20.07;;;13.37;;
26277;SDS011;14000;52.056;8.510;2023-05-14T05:30:31;21.03;;;12.53;;
26277;SDS011;14000;52.056;8.510;2023-05-14T05:32:57;18.37;;;12.47;;
26277;SDS011;14000;52.056;8.510;2023-05-14T05:35:22;20.20;;;12.83;;
26277;SDS011;14000;52.056;8.510;2023-05-14T05:37:48;26.73;;;17.37;;
26277;SDS011;14000;52.056;8.510;2023-05-14T05:40:14;26.70;;;15.67;;
26277;SDS011;14000;52.056;8.510;2023-05-14T05:42:40;19.03;;;12.13;;
26277;SDS011;14000;52.056;8.510;2023-05-14T05:45:06;17.93;;;12.23;;
26277;SDS011;14000;52.056;8.510;2023-05-14T05:47:32;19.07;;;12.03;;
26277;SDS011;14000;52.056;8.510;2023-05-14T05:49:58;17.03;;;11.80;;
26277;SDS011;14000;52.056;8.510;2023-05-14T05:52:23;18.73;;;12.27;;
26277;SDS011;14000;52.056;8.510;2023-05-14T05:54:49;17.60;;;11.40;;
26277;SDS011;14000;52.056;8.510;2023-05-14T05:57:15;17.53;;;12.17;;
26277;SDS011;14000;52.056;8.510;2023-05-14T05:59:40;15.97;;;11.00;;
26277;SDS011;14000;52.056;8.510;2023-05-14T06:02:07;16.43;;;10.63;;
26277;SDS011;14000;52.056;8.510;2023-05-14T06:04:32;16.20;;;9.73;;
26277;SDS011;14000;52.056;8.510;2023-05-14T06:06:58;16.03;;;9.93;;
26277;SDS011;14000;52.056;8.510;2023-05-14T06:09:23;14.70;;;9.60;;
26277;SDS011;14000;52.056;8.510;2023-05-14T06:11:49;17.83;;;9.80;;
26277;SDS011;14000;52.056;8.510;2023-05-14T06:14:14;18.47;;;8.70;;
26277;SDS011;14000;52.056;8.510;2023-05-14T06:16:40;12.87;;;8.50;;
26277;SDS011;14000;52.056;8.510;2023-05-14T06:19:06;12.30;;;7.60;;
26277;SDS011;14000;52.056;8.510;2023-05-14T06:21:32;13.93;;;7.60;;
26277;SDS011;14000;52.056;8.510;2023-05-14T06:23:58;13.57;;;6.90;;
26277;SDS011;14000;52.056;8.510;2023-05-14T06:26:23;11.77;;;6.40;;
26277;SDS011;14000;52.056;8.510;2023-05-14T06:28:49;14.20;;;6.87;;
26277;SDS011;14000;52.056;8.510;2023-05-14T06:31:15;13.13;;;7.37;;
26277;SDS011;14000;52.056;8.510;2023-05-14T06:33:41;12.03;;;7.17;;
26277;SDS011;14000;52.056;8.510;2023-05-14T06:36:07;12.47;;;7.27;;
26277;SDS011;14000;52.056;8.510;2023-05-14T06:38:32;13.23;;;7.67;;
26277;SDS011;14000;52.056;8.510;2023-05-14T06:40:58;12.13;;;6.30;;
26277;SDS011;14000;52.056;8.510;2023-05-14T06:43:24;12.37;;;7.20;;
26277;SDS011;14000;52.056;8.510;2023-05-14T06:45:50;12.00;;;6.20;;
26277;SDS011;14000;52.056;8.510;2023-05-14T06:48:16;13.77;;;6.97;;
26277;SDS011;14000;52.056;8.510;2023-05-14T06:50:43;11.40;;;6.20;;
26277;SDS011;14000;52.056;8.510;2023-05-14T06:53:09;11.50;;;6.03;;
26277;SDS011;14000;52.056;8.510;2023-05-14T06:55:35;11.40;;;6.17;;
26277;SDS011;14000;52.056;8.510;2023-05-14T06:58:00;11.27;;;5.87;;
26277;SDS011;14000;52.056;8.510;2023-05-14T07:00:26;12.10;;;7.20;;
26277;SDS011;14000;52.056;8.510;2023-05-14T07:02:52;12.00;;;6.80;;
26277;SDS011;14000;52.056;8.510;2023-05-14T07:05:18;13.07;;;7.43;;
26277;SDS011;14000;52.056;8.510;2023-05-14T07:07:43;13.60;;;6.63;;
26277;SDS011;14000;52.056;8.510;2023-05-14T07:10:09;12.83;;;7.63;;
26277;SDS011;14000;52.056;8.510;2023-05-14T07:12:35;11.90;;;6.77;;
26277;SDS011;14000;52.056;8.510;2023-05-14T07:15:00;12.40;;;7.40;;
26277;SDS011;14000;52.056;8.510;2023-05-14T07:17:26;12.00;;;7.10;;
26277;SDS011;14000;52.056;8.510;2023-05-14T07:19:51;12.50;;;7.00;;
26277;SDS011;14000;52.056;8.510;2023-05-14T07:22:19;13.23;;;7.60;;
26277;SDS011;14000;52.056;8.510;2023-05-14T07:24:45;13.90;;;8.13;;
26277;SDS011;14000;52.056;8.510;2023-05-14T07:27:10;13.87;;;7.20;;
26277;SDS011;14000;52.056;8.510;2023-05-14T07:29:36;12.37;;;6.23;;
26277;SDS011;14000;52.056;8.510;2023-05-14T07:32:02;12.30;;;6.70;;
26277;SDS011;14000;52.056;8.510;2023-05-14T07:34:28;11.03;;;6.00;;
26277;SDS011;14000;52.056;8.510;2023-05-14T07:36:53;10.17;;;5.53;;
26277;SDS011;14000;52.056;8.510;2023-05-14T07:39:19;11.27;;;5.23;;
26277;SDS011;14000;52.056;8.510;2023-05-14T07:41:45;11.10;;;6.13;;
26277;SDS011;14000;52.056;8.510;2023-05-14T07:44:11;11.70;;;5.53;;
26277;SDS011;14000;52.056;8.510;2023-05-14T07:46:36;11.77;;;5.80;;
26277;SDS011;14000;52.056;8.510;2023-05-14T07:49:02;10.57;;;5.10;;
26277;SDS011;14000;52.056;8.510;2023-05-14T07:51:27;9.87;;;4.67;;
26277;SDS011;14000;52.056;8.510;2023-05-14T07:53:53;10.77;;;5.37;;
26277;SDS011;14000;52.056;8.510;2023-05-14T07:56:22;11.70;;;5.17;;
26277;SDS011;14000;52.056;8.510;2023-05-14T07:58:47;9.33;;;5.10;;
26277;SDS011;14000;52.056;8.510;2023-05-14T08:01:13;12.10;;;5.10;;
26277;SDS011;14000;52.056;8.510;2023-05-14T08:03:39;11.20;;;4.53;;
26277;SDS011;14000;52.056;8.510;2023-05-14T08:06:05;11.67;;;4.57;;
26277;SDS011;14000;52.056;8.510;2023-05-14T08:08:31;9.57;;;4.40;;
26277;SDS011;14000;52.056;8.510;2023-05-14T08:10:57;9.50;;;4.50;;
26277;SDS011;14000;52.056;8.510;2023-05-14T08:13:23;8.53;;;4.50;;
26277;SDS011;14000;52.056;8.510;2023-05-14T08:15:48;12.07;;;5.30;;
26277;SDS011;14000;52.056;8.510;2023-05-14T08:18:14;9.87;;;4.33;;
26277;SDS011;14000;52.056;8.510;2023-05-14T08:20:40;9.80;;;4.30;;
26277;SDS011;14000;52.056;8.510;2023-05-14T08:23:05;9.50;;;4.13;;
26277;SDS011;14000;52.056;8.510;2023-05-14T08:25:31;10.93;;;5.30;;
26277;SDS011;14000;52.056;8.510;2023-05-14T08:27:57;10.60;;;4.83;;
26277;SDS011;14000;52.056;8.510;2023-05-14T08:30:24;9.50;;;4.20;;
26277;SDS011;14000;52.056;8.510;2023-05-14T08:32:49;8.87;;;3.70;;
26277;SDS011;14000;52.056;8.510;2023-05-14T08:35:16;7.80;;;2.83;;
26277;SDS011;14000;52.056;8.510;2023-05-14T08:37:42;9.67;;;3.40;;
26277;SDS011;14000;52.056;8.510;2023-05-14T08:40:08;8.20;;;3.27;;
26277;SDS011;14000;52.056;8.510;2023-05-14T08:42:34;8.03;;;3.40;;
26277;SDS011;14000;52.056;8.510;2023-05-14T08:45:04;8.20;;;3.53;;
26277;SDS011;14000;52.056;8.510;2023-05-14T08:47:31;8.07;;;3.50;;
26277;SDS011;14000;52.056;8.510;2023-05-14T08:50:01;8.60;;;3.40;;
26277;SDS011;14000;52.056;8.510;2023-05-14T08:52:29;8.33;;;3.57;;
26277;SDS011;14000;52.056;8.510;2023-05-14T08:54:55;11.03;;;3.30;;
26277;SDS011;14000;52.056;8.510;2023-05-14T08:57:24;10.13;;;3.60;;
26277;SDS011;14000;52.056;8.510;2023-05-14T08:59:50;10.83;;;3.40;;
26277;SDS011;14000;52.056;8.510;2023-05-14T09:02:20;9.00;;;3.40;;
26277;SDS011;14000;52.056;8.510;2023-05-14T09:04:48;9.87;;;3.57;;
26277;SDS011;14000;52.056;8.510;2023-05-14T09:07:19;9.70;;;3.83;;
26277;SDS011;14000;52.056;8.510;2023-05-14T09:09:45;8.60;;;3.40;;
26277;SDS011;14000;52.056;8.510;2023-05-14T09:12:11;8.20;;;3.27;;
26277;SDS011;14000;52.056;8.510;2023-05-14T09:14:37;9.30;;;3.70;;
26277;SDS011;14000;52.056;8.510;2023-05-14T09:17:02;8.30;;;3.30;;
26277;SDS011;14000;52.056;8.510;2023-05-14T09:19:28;9.70;;;3.50;;
26277;SDS011;14000;52.056;8.510;2023-05-14T09:21:55;7.43;;;3.00;;
26277;SDS011;14000;52.056;8.510;2023-05-14T09:24:25;9.40;;;3.20;;
26277;SDS011;14000;52.056;8.510;2023-05-14T09:26:55;8.67;;;3.03;;
26277;SDS011;14000;52.056;8.510;2023-05-14T09:29:25;10.77;;;3.10;;
26277;SDS011;14000;52.056;8.510;2023-05-14T09:31:52;8.60;;;2.90;;
26277;SDS011;14000;52.056;8.510;2023-05-14T09:34:23;7.57;;;3.13;;
26277;SDS011;14000;52.056;8.510;2023-05-14T09:36:49;9.30;;;3.20;;
26277;SDS011;14000;52.056;8.510;2023-05-14T09:39:18;10.53;;;2.83;;
26277;SDS011;14000;52.056;8.510;2023-05-14T09:41:43;6.57;;;2.53;;
26277;SDS011;14000;52.056;8.510;2023-05-14T09:44:09;6.80;;;2.10;;
26277;SDS011;14000;52.056;8.510;2023-05-14T09:46:34;6.77;;;2.30;;
26277;SDS011;14000;52.056;8.510;2023-05-14T09:49:00;6.93;;;2.43;;
26277;SDS011;14000;52.056;8.510;2023-05-14T09:51:28;6.90;;;2.27;;
26277;SDS011;14000;52.056;8.510;2023-05-14T09:53:55;6.77;;;2.30;;
26277;SDS011;14000;52.056;8.510;2023-05-14T09:56:21;7.57;;;2.40;;
26277;SDS011;14000;52.056;8.510;2023-05-14T09:58:47;6.83;;;2.10;;
26277;SDS011;14000;52.056;8.510;2023-05-14T10:01:13;6.40;;;2.17;;
26277;SDS011;14000;52.056;8.510;2023-05-14T10:03:42;7.33;;;2.13;;
26277;SDS011;14000;52.056;8.510;2023-05-14T10:06:08;6.57;;;2.10;;
26277;SDS011;14000;52.056;8.510;2023-05-14T10:08:37;6.63;;;2.10;;
26277;SDS011;14000;52.056;8.510;2023-05-14T10:11:09;6.13;;;2.20;;
26277;SDS011;14000;52.056;8.510;2023-05-14T10:13:40;5.23;;;1.87;;
26277;SDS011;14000;52.056;8.510;2023-05-14T10:16:11;9.30;;;2.10;;
26277;SDS011;14000;52.056;8.510;2023-05-14T10:18:45;6.27;;;1.90;;
26277;SDS011;14000;52.056;8.510;2023-05-14T10:21:13;5.97;;;2.00;;
26277;SDS011;14000;52.056;8.510;2023-05-14T10:23:39;6.47;;;2.10;;
26277;SDS011;14000;52.056;8.510;2023-05-14T10:26:05;6.50;;;2.20;;
26277;SDS011;14000;52.056;8.510;2023-05-14T10:28:31;5.80;;;2.03;;
26277;SDS011;14000;52.056;8.510;2023-05-14T10:31:00;8.00;;;2.20;;
26277;SDS011;14000;52.056;8.510;2023-05-14T10:33:26;7.00;;;2.23;;
26277;SDS011;14000;52.056;8.510;2023-05-14T10:36:04;7.47;;;1.90;;
26277;SDS011;14000;52.056;8.510;2023-05-14T10:38:31;7.93;;;2.00;;
26277;SDS011;14000;52.056;8.510;2023-05-14T10:41:04;8.57;;;1.90;;
26277;SDS011;14000;52.056;8.510;2023-05-14T10:43:39;5.43;;;1.80;;
26277;SDS011;14000;52.056;8.510;2023-05-14T10:46:06;5.97;;;1.40;;
26277;SDS011;14000;52.056;8.510;2023-05-14T10:48:33;5.00;;;1.50;;
26277;SDS011;14000;52.056;8.510;2023-05-14T10:51:00;5.10;;;1.60;;
26277;SDS011;14000;52.056;8.510;2023-05-14T10:53:33;5.37;;;1.80;;
26277;SDS011;14000;52.056;8.510;2023-05-14T10:56:08;6.70;;;2.20;;
26277;SDS011;14000;52.056;8.510;2023-05-14T10:58:38;6.37;;;2.27;;
26277;SDS011;14000;52.056;8.510;2023-05-14T11:01:09;7.23;;;2.00;;
26277;SDS011;14000;52.056;8.510;2023-05-14T11:03:39;6.43;;;1.70;;
26277;SDS011;14000;52.056;8.510;2023-05-14T11:06:08;5.97;;;1.90;;
26277;SDS011;14000;52.056;8.510;2023-05-14T11:08:34;6.57;;;1.70;;
26277;SDS011;14000;52.056;8.510;2023-05-14T11:11:01;5.40;;;1.60;;
26277;SDS011;14000;52.056;8.510;2023-05-14T11:13:26;4.67;;;1.40;;
26277;SDS011;14000;52.056;8.510;2023-05-14T11:15:52;5.53;;;1.40;;
26277;SDS011;14000;52.056;8.510;2023-05-14T11:18:27;4.40;;;1.30;;
26277;SDS011;14000;52.056;8.510;2023-05-14T11:21:00;5.23;;;1.57;;
26277;SDS011;14000;52.056;8.510;2023-05-14T11:23:26;6.63;;;2.00;;
26277;SDS011;14000;52.056;8.510;2023-05-14T11:25:53;6.13;;;1.70;;
26277;SDS011;14000;52.056;8.510;2023-05-14T11:28:20;4.07;;;1.40;;
26277;SDS011;14000;52.056;8.510;2023-05-14T11:30:50;4.07;;;1.33;;
26277;SDS011;14000;52.056;8.510;2023-05-14T11:33:17;4.68;;;1.25;;
26277;SDS011;14000;52.056;8.510;2023-05-14T11:35:43;5.33;;;1.50;;
26277;SDS011;14000;52.056;8.510;2023-05-14T11:38:16;5.60;;;1.58;;
26277;SDS011;14000;52.056;8.510;2023-05-14T11:40:56;4.75;;;1.52;;
26277;SDS011;14000;52.056;8.510;2023-05-14T11:43:23;5.47;;;1.50;;
26277;SDS011;14000;52.056;8.510;2023-05-14T11:45:52;5.70;;;1.60;;
26277;SDS011;14000;52.056;8.510;2023-05-14T11:48:19;3.97;;;1.50;;
26277;SDS011;14000;52.056;8.510;2023-05-14T11:50:50;5.60;;;1.50;;
26277;SDS011;14000;52.056;8.510;2023-05-14T11:53:23;4.50;;;1.33;;
26277;SDS011;14000;52.056;8.510;2023-05-14T11:55:54;7.67;;;1.53;;
26277;SDS011;14000;52.056;8.510;2023-05-14T11:58:21;4.90;;;1.60;;
26277;SDS011;14000;52.056;8.510;2023-05-14T12:00:54;5.60;;;1.63;;
26277;SDS011;14000;52.056;8.510;2023-05-14T12:03:20;4.43;;;1.50;;
26277;SDS011;14000;52.056;8.510;2023-05-14T12:05:58;4.63;;;1.27;;
26277;SDS011;14000;52.056;8.510;2023-05-14T12:08:28;5.33;;;1.70;;
26277;SDS011;14000;52.056;8.510;2023-05-14T12:10:57;5.67;;;1.80;;
26277;SDS011;14000;52.056;8.510;2023-05-14T12:13:27;5.07;;;1.70;;
26277;SDS011;14000;52.056;8.510;2023-05-14T12:15:57;5.70;;;1.70;;
26277;SDS011;14000;52.056;8.510;2023-05-14T12:18:24;5.53;;;1.80;;
26277;SDS011;14000;52.056;8.510;2023-05-14T12:20:52;6.30;;;2.20;;
26277;SDS011;14000;52.056;8.510;2023-05-14T12:23:24;8.10;;;2.20;;
26277;SDS011;14000;52.056;8.510;2023-05-14T12:25:51;8.67;;;3.50;;
26277;SDS011;14000;52.056;8.510;2023-05-14T12:28:17;6.50;;;2.30;;
26277;SDS011;14000;52.056;8.510;2023-05-14T12:30:44;6.93;;;2.37;;
26277;SDS011;14000;52.056;8.510;2023-05-14T12:33:11;7.63;;;2.60;;
26277;SDS011;14000;52.056;8.510;2023-05-14T12:35:37;6.60;;;2.23;;
26277;SDS011;14000;52.056;8.510;2023-05-14T12:38:03;7.00;;;2.50;;
26277;SDS011;14000;52.056;8.510;2023-05-14T12:40:29;6.53;;;2.40;;
26277;SDS011;14000;52.056;8.510;2023-05-14T12:42:54;6.97;;;2.33;;
26277;SDS011;14000;52.056;8.510;2023-05-14T12:45:20;7.13;;;2.33;;
26277;SDS011;14000;52.056;8.510;2023-05-14T12:47:46;6.77;;;2.30;;
26277;SDS011;14000;52.056;8.510;2023-05-14T12:50:11;7.40;;;2.40;;
26277;SDS011;14000;52.056;8.510;2023-05-14T12:52:37;5.83;;;2.10;;
26277;SDS011;14000;52.056;8.510;2023-05-14T12:55:02;8.13;;;2.43;;
26277;SDS011;14000;52.056;8.510;2023-05-14T12:57:28;6.87;;;2.27;;
26277;SDS011;14000;52.056;8.510;2023-05-14T12:59:54;7.00;;;2.30;;
26277;SDS011;14000;52.056;8.510;2023-05-14T13:02:20;6.63;;;2.10;;
26277;SDS011;14000;52.056;8.510;2023-05-14T13:04:46;6.70;;;2.23;;
26277;SDS011;14000;52.056;8.510;2023-05-14T13:07:11;7.00;;;2.23;;
26277;SDS011;14000;52.056;8.510;2023-05-14T13:09:37;6.90;;;2.10;;
26277;SDS011;14000;52.056;8.510;2023-05-14T13:12:03;7.83;;;2.20;;
26277;SDS011;14000;52.056;8.510;2023-05-14T13:14:29;7.57;;;2.20;;
26277;SDS011;14000;52.056;8.510;2023-05-14T13:16:54;7.30;;;2.30;;
26277;SDS011;14000;52.056;8.510;2023-05-14T13:19:20;5.83;;;2.07;;
26277;SDS011;14000;52.056;8.510;2023-05-14T13:21:45;6.20;;;2.10;;
26277;SDS011;14000;52.056;8.510;2023-05-14T13:24:11;6.43;;;2.20;;
26277;SDS011;14000;52.056;8.510;2023-05-14T13:26:37;7.07;;;2.00;;
26277;SDS011;14000;52.056;8.510;2023-05-14T13:29:02;5.90;;;2.00;;
26277;SDS011;14000;52.056;8.510;2023-05-14T13:31:28;6.87;;;2.30;;
26277;SDS011;14000;52.056;8.510;2023-05-14T13:33:53;8.43;;;2.00;;
26277;SDS011;14000;52.056;8.510;2023-05-14T13:36:19;7.03;;;2.33;;
26277;SDS011;14000;52.056;8.510;2023-05-14T13:38:45;5.50;;;1.90;;
26277;SDS011;14000;52.056;8.510;2023-05-14T13:41:10;6.97;;;2.30;;
26277;SDS011;14000;52.056;8.510;2023-05-14T13:43:36;6.73;;;2.20;;
26277;SDS011;14000;52.056;8.510;2023-05-14T13:46:03;6.53;;;2.27;;
26277;SDS011;14000;52.056;8.510;2023-05-14T13:48:29;7.17;;;2.37;;
26277;SDS011;14000;52.056;8.510;2023-05-14T13:50:55;6.47;;;2.50;;
26277;SDS011;14000;52.056;8.510;2023-05-14T13:53:21;6.60;;;2.33;;
26277;SDS011;14000;52.056;8.510;2023-05-14T13:55:48;8.43;;;2.47;;
26277;SDS011;14000;52.056;8.510;2023-05-14T13:58:13;6.27;;;2.30;;
26277;SDS011;14000;52.056;8.510;2023-05-14T14:00:39;7.33;;;2.53;;
26277;SDS011;14000;52.056;8.510;2023-05-14T14:03:05;7.83;;;2.60;;
26277;SDS011;14000;52.056;8.510;2023-05-14T14:05:31;8.37;;;2.10;;
26277;SDS011;14000;52.056;8.510;2023-05-14T14:07:57;5.87;;;2.00;;
26277;SDS011;14000;52.056;8.510;2023-05-14T14:10:23;6.53;;;2.20;;
26277;SDS011;14000;52.056;8.510;2023-05-14T14:12:48;7.00;;;2.40;;
26277;SDS011;14000;52.056;8.510;2023-05-14T14:15:14;6.80;;;2.30;;
26277;SDS011;14000;52.056;8.510;2023-05-14T14:17:40;7.10;;;2.40;;
26277;SDS011;14000;52.056;8.510;2023-05-14T14:20:07;7.67;;;2.10;;
26277;SDS011;14000;52.056;8.510;2023-05-14T14:22:33;7.77;;;2.13;;
26277;SDS011;14000;52.056;8.510;2023-05-14T14:24:59;7.97;;;2.33;;
26277;SDS011;14000;52.056;8.510;2023-05-14T14:27:25;8.67;;;2.40;;
26277;SDS011;14000;52.056;8.510;2023-05-14T14:29:51;7.23;;;2.30;;
26277;SDS011;14000;52.056;8.510;2023-05-14T14:32:16;9.53;;;2.27;;
26277;SDS011;14000;52.056;8.510;2023-05-14T14:34:42;6.77;;;1.97;;
26277;SDS011;14000;52.056;8.510;2023-05-14T14:37:08;7.30;;;2.40;;